sensor_id;sensor_type;location;lat;lon;timestamp;P1;durP1;ratioP1;P2;durP2;ratioP2
25083;SDS011;13075;55.682;37.564;2022-08-21T00:01:51;81.72;;;49.53;;
25083;SDS011;13075;55.682;37.564;2022-08-21T00:04:16;77.22;;;48.47;;
25083;SDS011;13075;55.682;37.564;2022-08-21T00:06:42;83.93;;;50.38;;
25083;SDS011;13075;55.682;37.564;2022-08-21T00:09:08;77.00;;;47.65;;
25083;SDS011;13075;55.682;37.564;2022-08-21T00:11:35;78.60;;;49.55;;
25083;SDS011;13075;55.682;37.564;2022-08-21T00:14:03;80.50;;;53.03;;
25083;SDS011;13075;55.682;37.564;2022-08-21T00:16:29;80.45;;;50.92;;
25083;SDS011;13075;55.682;37.564;2022-08-21T00:18:55;79.22;;;50.47;;
25083;SDS011;13075;55.682;37.564;2022-08-21T00:21:21;84.00;;;50.47;;
25083;SDS011;13075;55.682;37.564;2022-08-21T00:23:47;77.53;;;49.35;;
25083;SDS011;13075;55.682;37.564;2022-08-21T00:26:13;75.60;;;48.90;;
25083;SDS011;13075;55.682;37.564;2022-08-21T00:28:38;82.35;;;53.63;;
25083;SDS011;13075;55.682;37.564;2022-08-21T00:31:04;80.82;;;52.50;;
25083;SDS011;13075;55.682;37.564;2022-08-21T00:33:30;79.07;;;50.90;;
25083;SDS011;13075;55.682;37.564;2022-08-21T00:35:57;79.25;;;53.38;;
25083;SDS011;13075;55.682;37.564;2022-08-21T00:38:23;81.45;;;52.90;;
25083;SDS011;13075;55.682;37.564;2022-08-21T00:40:50;83.70;;;54.20;;
25083;SDS011;13075;55.682;37.564;2022-08-21T00:43:20;74.28;;;49.78;;
25083;SDS011;13075;55.682;37.564;2022-08-21T00:45:53;83.50;;;51.03;;
25083;SDS011;13075;55.682;37.564;2022-08-21T00:48:19;76.78;;;52.95;;
25083;SDS011;13075;55.682;37.564;2022-08-21T00:50:46;86.00;;;49.45;;
25083;SDS011;13075;55.682;37.564;2022-08-21T00:53:25;77.47;;;51.92;;
25083;SDS011;13075;55.682;37.564;2022-08-21T00:55:52;98.72;;;55.65;;
25083;SDS011;13075;55.682;37.564;2022-08-21T00:58:19;85.95;;;50.72;;
25083;SDS011;13075;55.682;37.564;2022-08-21T01:03:24;81.47;;;49.70;;
25083;SDS011;13075;55.682;37.564;2022-08-21T01:05:51;78.38;;;51.53;;
25083;SDS011;13075;55.682;37.564;2022-08-21T01:08:17;91.97;;;53.03;;
25083;SDS011;13075;55.682;37.564;2022-08-21T01:10:44;87.55;;;53.25;;
25083;SDS011;13075;55.682;37.564;2022-08-21T01:13:13;79.35;;;51.53;;
25083;SDS011;13075;55.682;37.564;2022-08-21T01:15:43;79.10;;;50.63;;
25083;SDS011;13075;55.682;37.564;2022-08-21T01:18:11;84.65;;;53.03;;
25083;SDS011;13075;55.682;37.564;2022-08-21T01:20:41;82.43;;;54.38;;
25083;SDS011;13075;55.682;37.564;2022-08-21T01:23:09;84.72;;;54.20;;
25083;SDS011;13075;55.682;37.564;2022-08-21T01:25:35;92.43;;;54.42;;
25083;SDS011;13075;55.682;37.564;2022-08-21T01:28:02;80.40;;;53.33;;
25083;SDS011;13075;55.682;37.564;2022-08-21T01:30:34;75.13;;;50.33;;
25083;SDS011;13075;55.682;37.564;2022-08-21T01:33:05;76.55;;;51.28;;
25083;SDS011;13075;55.682;37.564;2022-08-21T01:35:31;87.35;;;52.88;;
25083;SDS011;13075;55.682;37.564;2022-08-21T01:37:59;79.00;;;50.78;;
25083;SDS011;13075;55.682;37.564;2022-08-21T01:40:25;80.10;;;51.47;;
25083;SDS011;13075;55.682;37.564;2022-08-21T01:42:51;77.90;;;49.88;;
25083;SDS011;13075;55.682;37.564;2022-08-21T01:45:16;83.65;;;49.17;;
25083;SDS011;13075;55.682;37.564;2022-08-21T01:47:43;78.40;;;50.17;;
25083;SDS011;13075;55.682;37.564;2022-08-21T01:50:11;85.10;;;49.15;;
25083;SDS011;13075;55.682;37.564;2022-08-21T01:52:39;77.68;;;46.50;;
25083;SDS011;13075;55.682;37.564;2022-08-21T01:55:09;71.57;;;44.28;;
25083;SDS011;13075;55.682;37.564;2022-08-21T01:57:35;79.68;;;44.75;;
25083;SDS011;13075;55.682;37.564;2022-08-21T02:00:03;72.28;;;45.05;;
25083;SDS011;13075;55.682;37.564;2022-08-21T02:02:37;81.15;;;45.63;;
25083;SDS011;13075;55.682;37.564;2022-08-21T02:05:04;71.00;;;44.85;;
25083;SDS011;13075;55.682;37.564;2022-08-21T02:07:36;68.38;;;45.42;;
25083;SDS011;13075;55.682;37.564;2022-08-21T02:10:07;73.85;;;44.45;;
25083;SDS011;13075;55.682;37.564;2022-08-21T02:12:34;66.72;;;42.97;;
25083;SDS011;13075;55.682;37.564;2022-08-21T02:15:00;77.07;;;44.60;;
25083;SDS011;13075;55.682;37.564;2022-08-21T02:17:26;67.80;;;43.45;;
25083;SDS011;13075;55.682;37.564;2022-08-21T02:19:52;66.18;;;44.42;;
25083;SDS011;13075;55.682;37.564;2022-08-21T02:22:17;63.60;;;41.10;;
25083;SDS011;13075;55.682;37.564;2022-08-21T02:24:43;59.28;;;42.10;;
25083;SDS011;13075;55.682;37.564;2022-08-21T02:27:09;64.43;;;40.80;;
25083;SDS011;13075;55.682;37.564;2022-08-21T02:29:34;61.90;;;42.95;;
25083;SDS011;13075;55.682;37.564;2022-08-21T02:32:00;66.50;;;41.92;;
25083;SDS011;13075;55.682;37.564;2022-08-21T02:34:26;65.07;;;41.17;;
25083;SDS011;13075;55.682;37.564;2022-08-21T02:36:51;60.92;;;40.53;;
25083;SDS011;13075;55.682;37.564;2022-08-21T02:39:17;63.53;;;42.85;;
25083;SDS011;13075;55.682;37.564;2022-08-21T02:41:42;64.32;;;41.53;;
25083;SDS011;13075;55.682;37.564;2022-08-21T02:44:08;65.78;;;40.88;;
25083;SDS011;13075;55.682;37.564;2022-08-21T02:46:34;65.57;;;40.47;;
25083;SDS011;13075;55.682;37.564;2022-08-21T02:48:59;63.58;;;40.47;;
25083;SDS011;13075;55.682;37.564;2022-08-21T02:51:25;66.55;;;38.58;;
25083;SDS011;13075;55.682;37.564;2022-08-21T02:53:52;70.45;;;42.38;;
25083;SDS011;13075;55.682;37.564;2022-08-21T02:56:19;63.50;;;39.05;;
25083;SDS011;13075;55.682;37.564;2022-08-21T02:58:48;66.05;;;40.58;;
25083;SDS011;13075;55.682;37.564;2022-08-21T03:01:16;62.92;;;40.55;;
25083;SDS011;13075;55.682;37.564;2022-08-21T03:03:43;63.50;;;40.90;;
25083;SDS011;13075;55.682;37.564;2022-08-21T03:06:11;72.30;;;38.38;;
25083;SDS011;13075;55.682;37.564;2022-08-21T03:08:39;61.97;;;36.67;;
25083;SDS011;13075;55.682;37.564;2022-08-21T03:11:05;56.22;;;38.17;;
25083;SDS011;13075;55.682;37.564;2022-08-21T03:13:31;62.97;;;38.63;;
25083;SDS011;13075;55.682;37.564;2022-08-21T03:15:57;59.50;;;40.42;;
25083;SDS011;13075;55.682;37.564;2022-08-21T03:18:23;69.75;;;40.45;;
25083;SDS011;13075;55.682;37.564;2022-08-21T03:20:48;73.78;;;38.78;;
25083;SDS011;13075;55.682;37.564;2022-08-21T03:23:15;68.45;;;37.95;;
25083;SDS011;13075;55.682;37.564;2022-08-21T03:25:42;67.32;;;38.88;;
25083;SDS011;13075;55.682;37.564;2022-08-21T03:28:12;71.63;;;39.30;;
25083;SDS011;13075;55.682;37.564;2022-08-21T03:30:41;66.00;;;37.08;;
25083;SDS011;13075;55.682;37.564;2022-08-21T03:33:07;68.03;;;38.30;;
25083;SDS011;13075;55.682;37.564;2022-08-21T03:35:33;62.42;;;39.00;;
25083;SDS011;13075;55.682;37.564;2022-08-21T03:37:59;67.55;;;39.78;;
25083;SDS011;13075;55.682;37.564;2022-08-21T03:40:24;62.17;;;37.80;;
25083;SDS011;13075;55.682;37.564;2022-08-21T03:42:50;59.30;;;38.47;;
25083;SDS011;13075;55.682;37.564;2022-08-21T03:45:17;70.93;;;40.35;;
25083;SDS011;13075;55.682;37.564;2022-08-21T03:50:26;61.15;;;39.10;;
25083;SDS011;13075;55.682;37.564;2022-08-21T03:52:54;62.22;;;38.22;;
25083;SDS011;13075;55.682;37.564;2022-08-21T03:55:20;57.78;;;36.35;;
25083;SDS011;13075;55.682;37.564;2022-08-21T03:57:46;68.38;;;38.83;;
25083;SDS011;13075;55.682;37.564;2022-08-21T04:00:12;58.15;;;37.75;;
25083;SDS011;13075;55.682;37.564;2022-08-21T04:02:39;66.60;;;39.28;;
25083;SDS011;13075;55.682;37.564;2022-08-21T04:05:06;60.63;;;38.25;;
25083;SDS011;13075;55.682;37.564;2022-08-21T04:07:32;55.90;;;38.15;;
25083;SDS011;13075;55.682;37.564;2022-08-21T04:09:58;62.25;;;38.78;;
25083;SDS011;13075;55.682;37.564;2022-08-21T04:12:24;67.72;;;39.70;;
25083;SDS011;13075;55.682;37.564;2022-08-21T04:14:50;61.72;;;40.47;;
25083;SDS011;13075;55.682;37.564;2022-08-21T04:17:18;68.05;;;41.58;;
25083;SDS011;13075;55.682;37.564;2022-08-21T04:19:44;60.13;;;39.63;;
25083;SDS011;13075;55.682;37.564;2022-08-21T04:24:38;64.45;;;42.17;;
25083;SDS011;13075;55.682;37.564;2022-08-21T04:27:04;71.82;;;42.45;;
25083;SDS011;13075;55.682;37.564;2022-08-21T04:29:29;70.07;;;43.22;;
25083;SDS011;13075;55.682;37.564;2022-08-21T04:31:55;70.53;;;40.95;;
25083;SDS011;13075;55.682;37.564;2022-08-21T04:34:20;68.20;;;42.33;;
25083;SDS011;13075;55.682;37.564;2022-08-21T04:36:46;62.83;;;39.38;;
25083;SDS011;13075;55.682;37.564;2022-08-21T04:39:12;60.15;;;41.55;;
25083;SDS011;13075;55.682;37.564;2022-08-21T04:41:37;65.90;;;43.40;;
25083;SDS011;13075;55.682;37.564;2022-08-21T04:44:03;70.82;;;41.45;;
25083;SDS011;13075;55.682;37.564;2022-08-21T04:46:29;62.85;;;41.20;;
25083;SDS011;13075;55.682;37.564;2022-08-21T04:48:55;69.03;;;43.25;;
25083;SDS011;13075;55.682;37.564;2022-08-21T04:54:05;73.57;;;46.22;;
25083;SDS011;13075;55.682;37.564;2022-08-21T04:56:39;63.83;;;42.67;;
25083;SDS011;13075;55.682;37.564;2022-08-21T04:59:11;74.88;;;44.58;;
25083;SDS011;13075;55.682;37.564;2022-08-21T05:01:41;78.07;;;45.17;;
25083;SDS011;13075;55.682;37.564;2022-08-21T05:04:09;76.90;;;46.80;;
25083;SDS011;13075;55.682;37.564;2022-08-21T05:06:39;77.93;;;48.70;;
25083;SDS011;13075;55.682;37.564;2022-08-21T05:09:07;83.25;;;50.22;;
25083;SDS011;13075;55.682;37.564;2022-08-21T05:11:34;78.07;;;51.97;;
25083;SDS011;13075;55.682;37.564;2022-08-21T05:14:02;75.82;;;48.63;;
25083;SDS011;13075;55.682;37.564;2022-08-21T05:16:28;80.20;;;50.50;;
25083;SDS011;13075;55.682;37.564;2022-08-21T05:18:53;68.47;;;48.30;;
25083;SDS011;13075;55.682;37.564;2022-08-21T05:21:19;81.85;;;50.17;;
25083;SDS011;13075;55.682;37.564;2022-08-21T05:23:46;80.93;;;52.72;;
25083;SDS011;13075;55.682;37.564;2022-08-21T05:26:11;82.03;;;51.15;;
25083;SDS011;13075;55.682;37.564;2022-08-21T05:28:37;75.38;;;49.75;;
25083;SDS011;13075;55.682;37.564;2022-08-21T05:31:03;78.85;;;51.28;;
25083;SDS011;13075;55.682;37.564;2022-08-21T05:33:29;79.72;;;51.60;;
25083;SDS011;13075;55.682;37.564;2022-08-21T05:35:55;75.93;;;51.42;;
25083;SDS011;13075;55.682;37.564;2022-08-21T05:38:22;74.25;;;51.20;;
25083;SDS011;13075;55.682;37.564;2022-08-21T05:40:49;72.03;;;50.00;;
25083;SDS011;13075;55.682;37.564;2022-08-21T05:43:15;72.40;;;48.88;;
25083;SDS011;13075;55.682;37.564;2022-08-21T05:45:42;82.65;;;53.25;;
25083;SDS011;13075;55.682;37.564;2022-08-21T05:48:08;72.38;;;51.28;;
25083;SDS011;13075;55.682;37.564;2022-08-21T05:50:36;82.20;;;52.28;;
25083;SDS011;13075;55.682;37.564;2022-08-21T05:53:03;71.30;;;48.83;;
25083;SDS011;13075;55.682;37.564;2022-08-21T05:55:29;67.25;;;49.10;;
25083;SDS011;13075;55.682;37.564;2022-08-21T05:57:55;75.07;;;49.25;;
25083;SDS011;13075;55.682;37.564;2022-08-21T06:00:21;74.60;;;50.00;;
25083;SDS011;13075;55.682;37.564;2022-08-21T06:02:48;65.43;;;45.85;;
25083;SDS011;13075;55.682;37.564;2022-08-21T06:05:15;75.60;;;48.88;;
25083;SDS011;13075;55.682;37.564;2022-08-21T06:07:42;72.07;;;50.83;;
25083;SDS011;13075;55.682;37.564;2022-08-21T06:10:08;71.20;;;45.67;;
25083;SDS011;13075;55.682;37.564;2022-08-21T06:12:34;68.97;;;46.55;;
25083;SDS011;13075;55.682;37.564;2022-08-21T06:15:00;64.03;;;44.85;;
25083;SDS011;13075;55.682;37.564;2022-08-21T06:17:25;73.22;;;46.60;;
25083;SDS011;13075;55.682;37.564;2022-08-21T06:19:54;79.22;;;43.72;;
25083;SDS011;13075;55.682;37.564;2022-08-21T06:22:20;67.60;;;46.63;;
25083;SDS011;13075;55.682;37.564;2022-08-21T06:24:46;66.72;;;45.03;;
25083;SDS011;13075;55.682;37.564;2022-08-21T06:27:12;65.45;;;45.22;;
25083;SDS011;13075;55.682;37.564;2022-08-21T06:29:37;67.85;;;45.88;;
25083;SDS011;13075;55.682;37.564;2022-08-21T06:32:03;69.85;;;46.55;;
25083;SDS011;13075;55.682;37.564;2022-08-21T06:34:31;60.33;;;41.95;;
25083;SDS011;13075;55.682;37.564;2022-08-21T06:36:57;64.65;;;44.78;;
25083;SDS011;13075;55.682;37.564;2022-08-21T06:39:23;68.28;;;44.80;;
25083;SDS011;13075;55.682;37.564;2022-08-21T06:41:48;70.75;;;46.92;;
25083;SDS011;13075;55.682;37.564;2022-08-21T06:44:15;75.55;;;42.80;;
25083;SDS011;13075;55.682;37.564;2022-08-21T06:46:41;63.25;;;40.10;;
25083;SDS011;13075;55.682;37.564;2022-08-21T06:49:07;67.97;;;41.03;;
25083;SDS011;13075;55.682;37.564;2022-08-21T06:51:33;55.83;;;40.63;;
25083;SDS011;13075;55.682;37.564;2022-08-21T06:53:58;61.60;;;40.08;;
25083;SDS011;13075;55.682;37.564;2022-08-21T06:56:24;66.22;;;41.00;;
25083;SDS011;13075;55.682;37.564;2022-08-21T06:58:49;65.45;;;39.80;;
25083;SDS011;13075;55.682;37.564;2022-08-21T07:01:15;59.33;;;39.22;;
25083;SDS011;13075;55.682;37.564;2022-08-21T07:03:41;59.60;;;41.00;;
25083;SDS011;13075;55.682;37.564;2022-08-21T07:06:09;66.68;;;41.78;;
25083;SDS011;13075;55.682;37.564;2022-08-21T07:08:36;70.57;;;40.35;;
25083;SDS011;13075;55.682;37.564;2022-08-21T07:11:03;56.75;;;39.67;;
25083;SDS011;13075;55.682;37.564;2022-08-21T07:13:32;51.63;;;37.33;;
25083;SDS011;13075;55.682;37.564;2022-08-21T07:15:58;50.67;;;35.45;;
25083;SDS011;13075;55.682;37.564;2022-08-21T07:18:24;51.40;;;37.25;;
25083;SDS011;13075;55.682;37.564;2022-08-21T07:20:49;49.60;;;37.03;;
25083;SDS011;13075;55.682;37.564;2022-08-21T07:23:19;50.88;;;35.80;;
25083;SDS011;13075;55.682;37.564;2022-08-21T07:25:49;41.92;;;32.03;;
25083;SDS011;13075;55.682;37.564;2022-08-21T07:28:14;42.97;;;33.00;;
25083;SDS011;13075;55.682;37.564;2022-08-21T07:30:40;41.42;;;33.65;;
25083;SDS011;13075;55.682;37.564;2022-08-21T07:33:06;48.78;;;34.50;;
25083;SDS011;13075;55.682;37.564;2022-08-21T07:35:32;46.58;;;33.33;;
25083;SDS011;13075;55.682;37.564;2022-08-21T07:37:58;41.38;;;32.20;;
25083;SDS011;13075;55.682;37.564;2022-08-21T07:40:24;48.42;;;33.30;;
25083;SDS011;13075;55.682;37.564;2022-08-21T07:42:50;38.58;;;32.17;;
25083;SDS011;13075;55.682;37.564;2022-08-21T07:45:18;48.55;;;31.60;;
25083;SDS011;13075;55.682;37.564;2022-08-21T07:47:45;48.75;;;35.20;;
25083;SDS011;13075;55.682;37.564;2022-08-21T07:50:12;45.53;;;33.88;;
25083;SDS011;13075;55.682;37.564;2022-08-21T07:52:39;43.88;;;32.50;;
25083;SDS011;13075;55.682;37.564;2022-08-21T07:55:06;43.90;;;32.60;;
25083;SDS011;13075;55.682;37.564;2022-08-21T07:57:33;45.13;;;32.15;;
25083;SDS011;13075;55.682;37.564;2022-08-21T07:59:58;44.15;;;31.83;;
25083;SDS011;13075;55.682;37.564;2022-08-21T08:02:28;40.67;;;28.77;;
25083;SDS011;13075;55.682;37.564;2022-08-21T08:04:57;35.15;;;27.38;;
25083;SDS011;13075;55.682;37.564;2022-08-21T08:07:24;40.35;;;29.23;;
25083;SDS011;13075;55.682;37.564;2022-08-21T08:09:50;36.45;;;26.00;;
25083;SDS011;13075;55.682;37.564;2022-08-21T08:12:15;45.05;;;28.80;;
25083;SDS011;13075;55.682;37.564;2022-08-21T08:14:41;38.88;;;27.80;;
25083;SDS011;13075;55.682;37.564;2022-08-21T08:17:06;43.92;;;28.83;;
25083;SDS011;13075;55.682;37.564;2022-08-21T08:19:32;40.70;;;30.08;;
25083;SDS011;13075;55.682;37.564;2022-08-21T08:21:58;44.67;;;32.20;;
25083;SDS011;13075;55.682;37.564;2022-08-21T08:24:23;40.22;;;32.72;;
25083;SDS011;13075;55.682;37.564;2022-08-21T08:26:49;48.03;;;33.42;;
25083;SDS011;13075;55.682;37.564;2022-08-21T08:29:15;48.85;;;33.78;;
25083;SDS011;13075;55.682;37.564;2022-08-21T08:31:40;49.17;;;33.95;;
25083;SDS011;13075;55.682;37.564;2022-08-21T08:34:06;51.53;;;33.60;;
25083;SDS011;13075;55.682;37.564;2022-08-21T08:36:35;44.58;;;30.40;;
25083;SDS011;13075;55.682;37.564;2022-08-21T08:39:02;42.78;;;28.83;;
25083;SDS011;13075;55.682;37.564;2022-08-21T08:41:29;43.92;;;27.75;;
25083;SDS011;13075;55.682;37.564;2022-08-21T08:44:02;46.13;;;27.95;;
25083;SDS011;13075;55.682;37.564;2022-08-21T08:46:38;33.35;;;24.40;;
25083;SDS011;13075;55.682;37.564;2022-08-21T08:49:13;43.95;;;25.35;;
25083;SDS011;13075;55.682;37.564;2022-08-21T08:51:56;44.90;;;26.42;;
25083;SDS011;13075;55.682;37.564;2022-08-21T08:57:06;35.50;;;23.85;;
25083;SDS011;13075;55.682;37.564;2022-08-21T08:59:38;35.00;;;23.98;;
25083;SDS011;13075;55.682;37.564;2022-08-21T09:02:12;36.05;;;24.42;;
25083;SDS011;13075;55.682;37.564;2022-08-21T09:04:40;34.28;;;23.52;;
25083;SDS011;13075;55.682;37.564;2022-08-21T09:09:51;35.67;;;22.75;;
25083;SDS011;13075;55.682;37.564;2022-08-21T09:20:19;39.97;;;22.55;;
25083;SDS011;13075;55.682;37.564;2022-08-21T09:22:57;39.88;;;23.63;;
25083;SDS011;13075;55.682;37.564;2022-08-21T09:25:27;39.08;;;25.73;;
25083;SDS011;13075;55.682;37.564;2022-08-21T09:27:57;41.25;;;22.88;;
25083;SDS011;13075;55.682;37.564;2022-08-21T09:30:24;36.90;;;21.48;;
25083;SDS011;13075;55.682;37.564;2022-08-21T09:32:55;31.35;;;20.85;;
25083;SDS011;13075;55.682;37.564;2022-08-21T09:35:22;26.70;;;17.17;;
25083;SDS011;13075;55.682;37.564;2022-08-21T09:43:02;28.67;;;17.80;;
25083;SDS011;13075;55.682;37.564;2022-08-21T09:45:38;24.55;;;14.18;;
25083;SDS011;13075;55.682;37.564;2022-08-21T09:50:48;25.27;;;14.05;;
25083;SDS011;13075;55.682;37.564;2022-08-21T09:53:16;21.63;;;11.65;;
25083;SDS011;13075;55.682;37.564;2022-08-21T09:55:52;25.52;;;10.93;;
25083;SDS011;13075;55.682;37.564;2022-08-21T09:58:41;23.42;;;10.93;;
25083;SDS011;13075;55.682;37.564;2022-08-21T10:01:20;12.88;;;9.18;;
25083;SDS011;13075;55.682;37.564;2022-08-21T10:03:48;23.15;;;10.40;;
25083;SDS011;13075;55.682;37.564;2022-08-21T10:06:25;13.95;;;9.73;;
25083;SDS011;13075;55.682;37.564;2022-08-21T10:09:06;21.65;;;9.93;;
25083;SDS011;13075;55.682;37.564;2022-08-21T10:11:36;24.65;;;10.82;;
25083;SDS011;13075;55.682;37.564;2022-08-21T10:27:31;25.50;;;13.75;;
25083;SDS011;13075;55.682;37.564;2022-08-21T10:30:04;22.40;;;13.20;;
25083;SDS011;13075;55.682;37.564;2022-08-21T10:32:42;18.20;;;11.25;;
25083;SDS011;13075;55.682;37.564;2022-08-21T10:35:26;15.40;;;10.70;;
25083;SDS011;13075;55.682;37.564;2022-08-21T10:56:24;14.32;;;6.13;;
25083;SDS011;13075;55.682;37.564;2022-08-21T11:02:01;11.90;;;5.60;;
25083;SDS011;13075;55.682;37.564;2022-08-21T11:04:57;8.25;;;4.95;;
25083;SDS011;13075;55.682;37.564;2022-08-21T11:07:38;8.68;;;4.93;;
25083;SDS011;13075;55.682;37.564;2022-08-21T11:13:17;11.07;;;4.68;;
25083;SDS011;13075;55.682;37.564;2022-08-21T11:16:07;11.65;;;5.15;;
25083;SDS011;13075;55.682;37.564;2022-08-21T11:18:39;7.55;;;4.20;;
25083;SDS011;13075;55.682;37.564;2022-08-21T11:24:13;14.35;;;5.28;;
25083;SDS011;13075;55.682;37.564;2022-08-21T11:26:45;13.75;;;5.00;;
25083;SDS011;13075;55.682;37.564;2022-08-21T11:29:21;17.17;;;6.80;;
25083;SDS011;13075;55.682;37.564;2022-08-21T11:32:04;8.20;;;5.53;;
25083;SDS011;13075;55.682;37.564;2022-08-21T11:48:46;18.83;;;9.88;;
25083;SDS011;13075;55.682;37.564;2022-08-21T11:51:56;17.52;;;10.52;;
25083;SDS011;13075;55.682;37.564;2022-08-21T12:00:13;28.67;;;16.88;;
25083;SDS011;13075;55.682;37.564;2022-08-21T12:02:52;22.80;;;16.83;;
25083;SDS011;13075;55.682;37.564;2022-08-21T12:08:06;32.70;;;18.73;;
25083;SDS011;13075;55.682;37.564;2022-08-21T12:10:41;29.98;;;19.85;;
25083;SDS011;13075;55.682;37.564;2022-08-21T12:13:21;30.48;;;18.63;;
25083;SDS011;13075;55.682;37.564;2022-08-21T12:15:50;27.15;;;17.10;;
25083;SDS011;13075;55.682;37.564;2022-08-21T12:21:05;22.15;;;15.80;;
25083;SDS011;13075;55.682;37.564;2022-08-21T12:26:26;32.50;;;15.10;;
25083;SDS011;13075;55.682;37.564;2022-08-21T12:29:12;28.27;;;15.52;;
25083;SDS011;13075;55.682;37.564;2022-08-21T12:34:37;28.85;;;14.80;;
25083;SDS011;13075;55.682;37.564;2022-08-21T12:39:51;20.55;;;12.77;;
25083;SDS011;13075;55.682;37.564;2022-08-21T12:42:20;17.45;;;8.75;;
25083;SDS011;13075;55.682;37.564;2022-08-21T12:44:51;18.52;;;8.13;;
25083;SDS011;13075;55.682;37.564;2022-08-21T12:50:06;16.45;;;5.65;;
25083;SDS011;13075;55.682;37.564;2022-08-21T12:52:40;18.75;;;4.38;;
25083;SDS011;13075;55.682;37.564;2022-08-21T12:55:30;18.60;;;5.30;;
25083;SDS011;13075;55.682;37.564;2022-08-21T12:57:58;20.30;;;5.03;;
25083;SDS011;13075;55.682;37.564;2022-08-21T13:00:25;12.80;;;3.85;;
25083;SDS011;13075;55.682;37.564;2022-08-21T13:02:52;11.43;;;4.00;;
25083;SDS011;13075;55.682;37.564;2022-08-21T13:05:23;13.05;;;4.43;;
25083;SDS011;13075;55.682;37.564;2022-08-21T13:07:53;15.55;;;4.55;;
25083;SDS011;13075;55.682;37.564;2022-08-21T13:10:24;21.48;;;7.38;;
25083;SDS011;13075;55.682;37.564;2022-08-21T13:12:55;19.85;;;7.65;;
25083;SDS011;13075;55.682;37.564;2022-08-21T13:15:31;11.82;;;5.95;;
25083;SDS011;13075;55.682;37.564;2022-08-21T13:18:01;22.88;;;7.55;;
25083;SDS011;13075;55.682;37.564;2022-08-21T13:20:30;16.83;;;7.80;;
25083;SDS011;13075;55.682;37.564;2022-08-21T13:22:57;13.65;;;6.45;;
25083;SDS011;13075;55.682;37.564;2022-08-21T13:25:27;12.20;;;6.80;;
25083;SDS011;13075;55.682;37.564;2022-08-21T13:27:58;13.80;;;6.88;;
25083;SDS011;13075;55.682;37.564;2022-08-21T13:30:41;13.68;;;6.57;;
25083;SDS011;13075;55.682;37.564;2022-08-21T13:33:09;15.02;;;5.47;;
25083;SDS011;13075;55.682;37.564;2022-08-21T13:35:45;21.08;;;5.72;;
25083;SDS011;13075;55.682;37.564;2022-08-21T13:38:16;14.88;;;5.88;;
25083;SDS011;13075;55.682;37.564;2022-08-21T13:40:49;14.65;;;4.35;;
25083;SDS011;13075;55.682;37.564;2022-08-21T13:43:18;14.30;;;5.32;;
25083;SDS011;13075;55.682;37.564;2022-08-21T13:45:48;17.63;;;4.70;;
25083;SDS011;13075;55.682;37.564;2022-08-21T13:48:16;16.75;;;5.05;;
25083;SDS011;13075;55.682;37.564;2022-08-21T13:50:42;20.92;;;6.07;;
25083;SDS011;13075;55.682;37.564;2022-08-21T13:53:19;15.57;;;4.22;;
25083;SDS011;13075;55.682;37.564;2022-08-21T13:55:47;18.20;;;4.72;;
25083;SDS011;13075;55.682;37.564;2022-08-21T13:58:13;8.82;;;4.32;;
25083;SDS011;13075;55.682;37.564;2022-08-21T14:00:50;14.23;;;5.25;;
25083;SDS011;13075;55.682;37.564;2022-08-21T14:03:50;12.43;;;5.20;;
25083;SDS011;13075;55.682;37.564;2022-08-21T14:06:17;21.88;;;6.20;;
25083;SDS011;13075;55.682;37.564;2022-08-21T14:08:50;14.93;;;6.28;;
25083;SDS011;13075;55.682;37.564;2022-08-21T14:11:18;18.03;;;5.87;;
25083;SDS011;13075;55.682;37.564;2022-08-21T14:13:47;12.20;;;6.22;;
25083;SDS011;13075;55.682;37.564;2022-08-21T14:16:20;16.42;;;6.15;;
25083;SDS011;13075;55.682;37.564;2022-08-21T14:21:36;17.33;;;9.02;;
25083;SDS011;13075;55.682;37.564;2022-08-21T14:26:33;18.63;;;9.07;;
25083;SDS011;13075;55.682;37.564;2022-08-21T14:29:01;15.90;;;7.50;;
25083;SDS011;13075;55.682;37.564;2022-08-21T14:31:31;16.58;;;9.48;;
25083;SDS011;13075;55.682;37.564;2022-08-21T14:33:58;10.27;;;6.50;;
25083;SDS011;13075;55.682;37.564;2022-08-21T14:36:24;13.18;;;6.50;;
25083;SDS011;13075;55.682;37.564;2022-08-21T14:38:50;19.20;;;7.57;;
25083;SDS011;13075;55.682;37.564;2022-08-21T14:41:16;14.25;;;6.53;;
25083;SDS011;13075;55.682;37.564;2022-08-21T14:43:44;16.50;;;6.53;;
25083;SDS011;13075;55.682;37.564;2022-08-21T14:46:12;7.10;;;5.18;;
25083;SDS011;13075;55.682;37.564;2022-08-21T14:48:41;12.13;;;4.70;;
25083;SDS011;13075;55.682;37.564;2022-08-21T14:51:07;10.52;;;5.05;;
25083;SDS011;13075;55.682;37.564;2022-08-21T14:53:33;13.25;;;5.90;;
25083;SDS011;13075;55.682;37.564;2022-08-21T14:55:59;16.00;;;6.70;;
25083;SDS011;13075;55.682;37.564;2022-08-21T14:58:32;5.82;;;3.88;;
25083;SDS011;13075;55.682;37.564;2022-08-21T15:01:04;15.82;;;4.68;;
25083;SDS011;13075;55.682;37.564;2022-08-21T15:03:32;16.17;;;4.53;;
25083;SDS011;13075;55.682;37.564;2022-08-21T15:05:59;7.70;;;3.60;;
25083;SDS011;13075;55.682;37.564;2022-08-21T15:08:24;10.90;;;4.30;;
25083;SDS011;13075;55.682;37.564;2022-08-21T15:10:51;14.05;;;3.13;;
25083;SDS011;13075;55.682;37.564;2022-08-21T15:13:18;10.73;;;5.45;;
25083;SDS011;13075;55.682;37.564;2022-08-21T15:15:45;10.20;;;4.80;;
25083;SDS011;13075;55.682;37.564;2022-08-21T15:18:13;9.48;;;3.65;;
25083;SDS011;13075;55.682;37.564;2022-08-21T15:20:39;8.43;;;3.53;;
25083;SDS011;13075;55.682;37.564;2022-08-21T15:23:05;8.10;;;3.30;;
25083;SDS011;13075;55.682;37.564;2022-08-21T15:25:32;13.18;;;3.35;;
25083;SDS011;13075;55.682;37.564;2022-08-21T15:27:58;6.88;;;2.90;;
25083;SDS011;13075;55.682;37.564;2022-08-21T15:30:25;9.07;;;3.08;;
25083;SDS011;13075;55.682;37.564;2022-08-21T15:32:51;10.30;;;2.83;;
25083;SDS011;13075;55.682;37.564;2022-08-21T15:35:17;8.02;;;2.92;;
25083;SDS011;13075;55.682;37.564;2022-08-21T15:37:43;9.55;;;2.67;;
25083;SDS011;13075;55.682;37.564;2022-08-21T15:40:09;7.65;;;2.55;;
25083;SDS011;13075;55.682;37.564;2022-08-21T15:42:35;4.10;;;2.40;;
25083;SDS011;13075;55.682;37.564;2022-08-21T15:45:03;5.28;;;1.92;;
25083;SDS011;13075;55.682;37.564;2022-08-21T15:47:34;9.15;;;2.60;;
25083;SDS011;13075;55.682;37.564;2022-08-21T15:50:01;4.72;;;2.28;;
25083;SDS011;13075;55.682;37.564;2022-08-21T15:52:28;13.85;;;4.63;;
25083;SDS011;13075;55.682;37.564;2022-08-21T15:54:54;5.15;;;2.25;;
25083;SDS011;13075;55.682;37.564;2022-08-21T15:57:21;4.90;;;3.17;;
25083;SDS011;13075;55.682;37.564;2022-08-21T15:59:55;4.80;;;2.08;;
25083;SDS011;13075;55.682;37.564;2022-08-21T16:02:24;11.98;;;2.72;;
25083;SDS011;13075;55.682;37.564;2022-08-21T16:04:54;4.20;;;2.70;;
25083;SDS011;13075;55.682;37.564;2022-08-21T16:07:19;11.65;;;2.63;;
25083;SDS011;13075;55.682;37.564;2022-08-21T16:09:45;13.02;;;3.03;;
25083;SDS011;13075;55.682;37.564;2022-08-21T16:12:13;10.15;;;3.33;;
25083;SDS011;13075;55.682;37.564;2022-08-21T16:14:47;13.20;;;3.30;;
25083;SDS011;13075;55.682;37.564;2022-08-21T16:17:22;8.73;;;3.42;;